Terminal Aerodrome Forecast
Issued by NWS

Home | Current Version | Previous Version | Text Only | Print | Product List | Glossary On
Versions: 1 2 3 4 5 6 7 8 9 10 11 12 13 14
000
FTUS45 KRIW 261741
TAFJAC
TAF
KJAC 261741Z 2618/2718 21006KT P6SM SCT050 SCT150
     FM270200 20005KT P6SM VCSH SCT040 BKN070
     FM271000 VRB05KT P6SM VCSH SCT025 BKN040
     FM271500 19007KT 5SM -RASN OVC020
      AMD LTD TO CLD VIS AND WIND=

USA.gov is the U.S. government's official web portal to all federal, state and local government web resources and services.